Time;durP1;ratioP1;P1;durP2;ratioP2;P2;SDS_P1;SDS_P2;PMS_P1;PMS_P2;Temp;Humidity;BMP_temperature;BMP_pressure;BME280_temperature;BME280_humidity;BME280_pressure;Samples;Min_cycle;Max_cycle;Signal;HPM_P1;HPM_P2
2023/01/20 00:01:11;;;;;;;40.13;18.52;;;0.20;99.90;;;;;;4936654;29;20051;-74
2023/01/20 00:03:37;;;;;;;37.95;17.88;;;0.20;99.90;;;;;;4939168;29;20741;-74
2023/01/20 00:06:03;;;;;;;39.33;17.80;;;0.20;99.90;;;;;;4957043;28;20115;-74
2023/01/20 00:08:29;;;;;;;35.47;17.98;;;0.20;99.90;;;;;;4936894;28;20138;-74
2023/01/20 00:10:54;;;;;;;42.47;17.00;;;0.20;99.90;;;;;;4916336;28;20075;-75
2023/01/20 00:13:20;;;;;;;39.97;16.63;;;0.30;99.90;;;;;;4939628;28;20057;-75
2023/01/20 00:15:47;;;;;;;48.30;18.33;;;0.20;99.90;;;;;;4937503;29;20079;-74
2023/01/20 00:18:13;;;;;;;40.97;18.05;;;0.30;99.90;;;;;;4934428;29;20054;-74
2023/01/20 00:20:39;;;;;;;43.65;15.98;;;0.30;99.90;;;;;;4914467;29;20058;-74
2023/01/20 00:23:05;;;;;;;34.53;15.68;;;0.20;99.90;;;;;;4936700;28;20058;-75
2023/01/20 00:25:33;;;;;;;38.10;17.17;;;0.20;99.90;;;;;;4938122;28;20053;-73
2023/01/20 00:27:59;;;;;;;37.20;16.42;;;0.20;99.90;;;;;;4927281;29;20054;-76
2023/01/20 00:30:25;;;;;;;40.42;17.55;;;0.10;99.90;;;;;;4952850;28;20059;-76
2023/01/20 00:32:51;;;;;;;38.58;16.83;;;0.20;99.90;;;;;;4940411;29;20071;-76
2023/01/20 00:35:16;;;;;;;38.55;16.70;;;0.10;99.90;;;;;;4935250;28;20122;-75
2023/01/20 00:37:42;;;;;;;32.40;15.57;;;0.20;99.90;;;;;;4932306;29;20043;-77
2023/01/20 00:40:08;;;;;;;34.33;15.77;;;0.20;99.90;;;;;;4960809;28;20121;-77
2023/01/20 00:42:34;;;;;;;36.30;17.20;;;0.20;99.90;;;;;;4933413;29;20064;-77
2023/01/20 00:45:00;;;;;;;34.28;14.73;;;0.20;99.90;;;;;;4933691;29;20639;-76
2023/01/20 00:47:26;;;;;;;38.63;16.05;;;0.20;99.90;;;;;;4940104;29;20109;-76
2023/01/20 00:49:51;;;;;;;34.47;17.55;;;0.30;99.90;;;;;;4937966;29;20472;-77
2023/01/20 00:52:17;;;;;;;38.95;17.75;;;0.20;99.90;;;;;;4952992;28;20078;-77
2023/01/20 00:54:44;;;;;;;36.22;16.25;;;0.20;99.90;;;;;;4948114;28;20049;-76
2023/01/20 00:57:10;;;;;;;41.97;16.67;;;0.20;99.90;;;;;;4953628;28;20047;-76
2023/01/20 00:59:35;;;;;;;35.63;15.85;;;0.10;99.90;;;;;;4945024;28;20049;-76
2023/01/20 01:02:01;;;;;;;42.97;18.10;;;0.30;99.90;;;;;;4918725;28;20051;-77
2023/01/20 01:04:27;;;;;;;36.67;16.00;;;0.10;99.90;;;;;;4945785;29;20884;-77
2023/01/20 01:06:53;;;;;;;33.28;15.82;;;0.20;99.90;;;;;;4921700;28;20043;-76
2023/01/20 01:09:21;;;;;;;35.38;16.90;;;0.00;99.90;;;;;;4947080;29;20119;-77
2023/01/20 01:11:47;;;;;;;38.22;16.55;;;0.10;99.90;;;;;;4941285;28;20059;-76
2023/01/20 01:14:13;;;;;;;40.60;17.38;;;0.20;99.90;;;;;;4944671;28;20043;-76
2023/01/20 01:16:40;;;;;;;35.55;16.13;;;0.10;99.90;;;;;;4940377;28;20360;-76
2023/01/20 01:19:05;;;;;;;41.58;17.05;;;0.10;99.90;;;;;;4920121;29;20048;-76
2023/01/20 01:21:31;;;;;;;31.77;15.80;;;0.10;99.90;;;;;;4944348;29;20134;-76
2023/01/20 01:23:57;;;;;;;38.85;17.02;;;0.10;99.90;;;;;;4916034;29;20055;-76
2023/01/20 01:26:23;;;;;;;38.33;16.65;;;0.20;99.90;;;;;;4957460;28;20552;-77
2023/01/20 01:28:49;;;;;;;38.70;17.77;;;0.00;99.90;;;;;;4919483;28;20086;-77
2023/01/20 01:31:16;;;;;;;35.67;16.40;;;0.00;99.90;;;;;;4960919;28;20424;-77
2023/01/20 01:33:41;;;;;;;38.95;16.40;;;0.00;99.90;;;;;;4957994;28;20453;-76
2023/01/20 01:36:11;;;;;;;43.35;16.40;;;0.00;99.90;;;;;;4934549;29;20043;-77
2023/01/20 01:38:37;;;;;;;36.90;16.02;;;-0.10;99.90;;;;;;4956014;28;20043;-76
2023/01/20 01:41:03;;;;;;;39.30;17.10;;;-0.10;99.90;;;;;;4945600;28;20253;-77
2023/01/20 01:43:34;;;;;;;46.85;17.80;;;-0.10;99.90;;;;;;4953579;29;20132;-77
2023/01/20 01:46:00;;;;;;;35.50;16.90;;;-0.10;99.90;;;;;;4964471;28;20054;-77
2023/01/20 01:48:46;;;;;;;44.67;19.20;;;-0.10;99.90;;;;;;4940232;29;20043;-76
2023/01/20 01:51:14;;;;;;;37.95;16.00;;;-0.10;99.90;;;;;;4955434;29;20496;-76
2023/01/20 01:53:42;;;;;;;41.42;17.80;;;0.00;99.90;;;;;;4944433;29;20053;-77
2023/01/20 01:56:08;;;;;;;37.42;17.00;;;-0.10;99.90;;;;;;4939650;28;20047;-76
2023/01/20 01:58:35;;;;;;;33.42;16.98;;;-0.20;99.90;;;;;;4935172;28;20043;-77
2023/01/20 02:01:01;;;;;;;34.10;16.83;;;0.00;99.90;;;;;;4922721;29;20035;-76
2023/01/20 02:03:30;;;;;;;34.25;16.60;;;-0.10;99.90;;;;;;4947589;29;20137;-76
2023/01/20 02:05:56;;;;;;;38.47;16.30;;;-0.10;99.90;;;;;;4937704;29;20050;-75
2023/01/20 02:08:33;;;;;;;30.73;16.23;;;-0.10;99.90;;;;;;4921909;28;20058;-75
2023/01/20 02:10:59;;;;;;;33.40;16.73;;;-0.10;99.90;;;;;;4908407;28;20118;-75
2023/01/20 02:13:30;;;;;;;40.92;18.48;;;0.00;99.90;;;;;;4928287;29;20067;-73
2023/01/20 02:16:34;;;;;;;37.70;16.17;;;-0.10;99.90;;;;;;4928254;29;20047;-73
2023/01/20 02:19:30;;;;;;;35.72;16.35;;;-0.20;99.90;;;;;;4918753;28;20078;-73
2023/01/20 02:22:02;;;;;;;41.67;17.63;;;-0.10;99.90;;;;;;4951881;29;20532;-73
2023/01/20 02:25:05;;;;;;;34.85;16.95;;;-0.20;99.90;;;;;;4955410;28;20053;-73
2023/01/20 02:27:45;;;;;;;34.85;15.40;;;-0.10;99.90;;;;;;4953652;28;20039;-74
2023/01/20 02:30:17;;;;;;;35.95;15.18;;;-0.10;99.90;;;;;;4952767;28;20051;-73
2023/01/20 02:33:05;;;;;;;29.95;14.55;;;-0.10;99.90;;;;;;4951510;28;20488;-73
2023/01/20 02:35:40;;;;;;;30.55;14.52;;;-0.10;99.90;;;;;;4951710;28;20120;-74
2023/01/20 02:38:26;;;;;;;36.53;15.48;;;-0.10;99.90;;;;;;4956600;28;20042;-73
2023/01/20 02:41:30;;;;;;;32.55;16.15;;;-0.10;99.90;;;;;;4925439;29;20051;-73
2023/01/20 02:44:00;;;;;;;37.35;16.08;;;-0.20;99.90;;;;;;4937517;29;20077;-73
2023/01/20 02:46:42;;;;;;;35.42;16.95;;;-0.20;99.90;;;;;;4955826;29;20130;-73
2023/01/20 02:49:39;;;;;;;33.75;15.13;;;-0.30;99.90;;;;;;4940566;29;20114;-73
2023/01/20 02:52:11;;;;;;;36.20;16.77;;;-0.30;99.90;;;;;;4930936;29;20047;-73
2023/01/20 02:54:37;;;;;;;32.40;14.93;;;-0.30;99.90;;;;;;4940409;29;20194;-73
2023/01/20 02:57:04;;;;;;;36.85;15.50;;;-0.30;99.90;;;;;;4939188;29;20916;-73
2023/01/20 02:59:33;;;;;;;36.47;16.53;;;-0.30;99.90;;;;;;4939870;29;20121;-73
2023/01/20 03:02:03;;;;;;;30.58;15.40;;;-0.20;99.90;;;;;;4933655;29;20303;-73
2023/01/20 03:04:42;;;;;;;26.13;14.55;;;-0.10;99.90;;;;;;4914312;29;20098;-73
2023/01/20 03:07:08;;;;;;;38.50;14.23;;;-0.20;99.90;;;;;;4937267;29;20499;-73
2023/01/20 03:09:38;;;;;;;33.90;15.50;;;-0.20;99.90;;;;;;4918527;29;20047;-73
2023/01/20 03:12:10;;;;;;;35.97;15.50;;;0.00;99.90;;;;;;4913340;29;20048;-73
2023/01/20 03:14:36;;;;;;;31.48;14.90;;;-0.10;99.90;;;;;;4918146;29;20539;-73
2023/01/20 03:17:04;;;;;;;33.42;16.38;;;0.00;99.90;;;;;;4921342;29;20138;-72
2023/01/20 03:19:30;;;;;;;36.95;16.05;;;0.00;99.90;;;;;;4956708;28;20133;-72
2023/01/20 03:21:56;;;;;;;37.50;16.10;;;0.00;99.90;;;;;;4947872;28;20699;-73
2023/01/20 03:24:25;;;;;;;32.55;15.52;;;0.00;99.90;;;;;;4938354;29;20158;-72
2023/01/20 03:26:51;;;;;;;36.40;16.77;;;0.10;99.90;;;;;;4956616;28;20043;-73
2023/01/20 03:29:18;;;;;;;32.25;15.10;;;0.00;99.90;;;;;;4949462;28;20047;-73
2023/01/20 03:31:58;;;;;;;34.70;15.95;;;-0.10;99.90;;;;;;4937831;29;20047;-73
2023/01/20 03:34:24;;;;;;;35.97;15.00;;;-0.10;99.90;;;;;;4938397;29;20047;-73
2023/01/20 03:36:50;;;;;;;31.83;15.65;;;-0.10;99.90;;;;;;4932480;29;20126;-72
2023/01/20 03:39:16;;;;;;;27.38;14.85;;;-0.10;99.90;;;;;;4954787;28;20452;-73
2023/01/20 03:41:54;;;;;;;27.40;14.38;;;-0.10;99.90;;;;;;4932159;29;20081;-73
2023/01/20 03:44:35;;;;;;;30.30;15.57;;;-0.10;99.90;;;;;;4938806;29;20082;-73
2023/01/20 03:48:05;;;;;;;34.30;16.45;;;-0.10;99.90;;;;;;4959084;28;20135;-73
2023/01/20 03:50:41;;;;;;;35.83;15.82;;;-0.10;99.90;;;;;;4905524;29;20529;-73
2023/01/20 03:53:32;;;;;;;36.35;15.15;;;-0.10;99.90;;;;;;4878254;29;20128;-73
2023/01/20 03:56:41;;;;;;;33.50;15.68;;;-0.20;99.90;;;;;;4928781;29;20047;-73
2023/01/20 03:59:08;;;;;;;36.70;15.68;;;-0.10;99.90;;;;;;4953745;29;20110;-73
2023/01/20 04:01:38;;;;;;;31.42;15.90;;;0.00;99.90;;;;;;4933348;29;20044;-73
2023/01/20 04:04:06;;;;;;;29.23;15.02;;;-0.10;99.90;;;;;;4936135;29;20050;-73
2023/01/20 04:06:32;;;;;;;;;;;-0.20;99.90;;;;;;4948760;29;20035;-73
2023/01/20 04:09:08;;;;;;;33.50;14.55;;;-0.10;99.90;;;;;;4946416;29;19942;-73
2023/01/20 04:11:34;;;;;;;34.03;15.95;;;-0.10;99.90;;;;;;4938426;29;20106;-73
2023/01/20 04:13:59;;;;;;;29.77;15.02;;;-0.20;99.90;;;;;;4938085;28;20039;-73
2023/01/20 04:16:25;;;;;;;29.65;15.60;;;-0.20;99.90;;;;;;4926091;29;20754;-73
2023/01/20 04:18:51;;;;;;;40.75;16.33;;;-0.20;99.90;;;;;;4920072;29;20082;-73
2023/01/20 04:21:38;;;;;;;30.35;15.38;;;-0.20;99.90;;;;;;4927150;28;20113;-74
2023/01/20 04:24:16;;;;;;;37.35;16.00;;;-0.10;99.90;;;;;;4954453;29;20053;-73
2023/01/20 04:26:42;;;;;;;30.55;15.40;;;-0.10;99.90;;;;;;4936187;28;20432;-73
2023/01/20 04:29:08;;;;;;;33.65;17.08;;;-0.20;99.90;;;;;;4933316;29;20048;-73
2023/01/20 04:31:34;;;;;;;32.10;16.40;;;-0.10;99.90;;;;;;4931174;29;20118;-73
2023/01/20 04:34:01;;;;;;;37.53;17.35;;;-0.20;99.90;;;;;;4922801;29;20043;-73
2023/01/20 04:36:29;;;;;;;30.70;16.83;;;-0.20;99.90;;;;;;4938181;29;20043;-74
2023/01/20 04:38:58;;;;;;;36.60;16.77;;;-0.20;99.90;;;;;;4938766;29;20051;-74
2023/01/20 04:41:27;;;;;;;37.47;17.25;;;-0.20;99.90;;;;;;4954225;28;20130;-74
2023/01/20 04:43:58;;;;;;;39.65;17.75;;;-0.20;99.90;;;;;;4917221;29;20043;-74
2023/01/20 04:46:24;;;;;;;31.95;15.75;;;-0.20;99.90;;;;;;4922540;29;20047;-74
2023/01/20 04:48:50;;;;;;;33.35;15.73;;;-0.40;99.90;;;;;;4938770;29;20047;-74
2023/01/20 04:51:16;;;;;;;31.17;16.02;;;-0.40;99.90;;;;;;4937730;28;20457;-74
2023/01/20 04:53:45;;;;;;;38.85;17.38;;;-0.40;99.90;;;;;;4938627;29;20047;-74
2023/01/20 04:56:12;;;;;;;33.88;17.00;;;-0.40;99.90;;;;;;4909841;29;20567;-74
2023/01/20 04:58:38;;;;;;;33.78;16.30;;;-0.30;99.90;;;;;;4932144;29;20075;-73
2023/01/20 05:01:04;;;;;;;34.08;16.35;;;-0.40;99.90;;;;;;4923001;29;20043;-73
2023/01/20 05:03:33;;;;;;;34.50;16.45;;;-0.30;99.90;;;;;;4931771;29;20371;-73
2023/01/20 05:06:00;;;;;;;29.63;15.23;;;-0.30;99.90;;;;;;4932644;29;20127;-74
2023/01/20 05:08:26;;;;;;;35.13;17.02;;;-0.30;99.90;;;;;;4934485;29;20388;-74
2023/01/20 05:10:52;;;;;;;31.42;15.35;;;-0.30;99.90;;;;;;4941867;29;20043;-74
2023/01/20 05:13:21;;;;;;;33.75;15.55;;;-0.30;99.90;;;;;;4951313;29;20051;-74
2023/01/20 05:15:47;;;;;;;30.33;15.13;;;-0.30;99.90;;;;;;4939028;29;20047;-74
2023/01/20 05:18:13;;;;;;;31.65;15.43;;;-0.30;99.90;;;;;;4951196;28;20051;-74
2023/01/20 05:20:39;;;;;;;27.13;14.55;;;-0.40;99.90;;;;;;4926310;29;20043;-74
2023/01/20 05:23:05;;;;;;;35.65;16.33;;;-0.40;99.90;;;;;;4933725;29;20048;-74
2023/01/20 05:25:32;;;;;;;30.08;14.93;;;-0.30;99.90;;;;;;4938194;29;20039;-74
2023/01/20 05:28:01;;;;;;;28.98;15.82;;;-0.50;99.90;;;;;;4943510;28;20110;-74
2023/01/20 05:30:27;;;;;;;28.83;14.27;;;-0.50;99.90;;;;;;4950996;28;20067;-73
2023/01/20 05:32:55;;;;;;;28.60;15.32;;;-0.70;99.90;;;;;;4922871;29;20496;-74
2023/01/20 05:35:21;;;;;;;;;;;-0.60;99.90;;;;;;4965226;28;20047;-74
2023/01/20 05:37:47;;;;;;;30.35;14.02;;;-0.70;99.90;;;;;;4950438;29;19941;-74
2023/01/20 05:40:13;;;;;;;30.85;15.48;;;-0.60;99.90;;;;;;4946065;29;20048;-74
2023/01/20 05:42:38;;;;;;;33.80;16.45;;;-0.50;99.90;;;;;;4954321;29;20428;-74
2023/01/20 05:45:05;;;;;;;29.85;14.80;;;-0.60;99.90;;;;;;4924552;29;20313;-74
2023/01/20 05:47:31;;;;;;;35.17;16.80;;;-0.70;99.90;;;;;;4955835;29;20039;-74
2023/01/20 05:49:56;;;;;;;30.33;15.65;;;-0.50;99.90;;;;;;4958592;28;20065;-74
2023/01/20 05:52:22;;;;;;;32.45;15.63;;;-0.70;99.90;;;;;;4953773;28;20428;-74
2023/01/20 05:54:48;;;;;;;35.50;16.55;;;-0.70;99.90;;;;;;4935834;29;20046;-74
2023/01/20 05:57:17;;;;;;;31.65;15.55;;;-0.50;99.90;;;;;;4949414;28;20052;-74
2023/01/20 05:59:46;;;;;;;33.53;15.88;;;-0.70;99.90;;;;;;4924743;29;20772;-74
2023/01/20 06:02:12;;;;;;;34.35;16.67;;;-0.70;99.90;;;;;;4923989;29;20121;-73
2023/01/20 06:04:37;;;;;;;32.72;16.17;;;-0.70;99.90;;;;;;4943800;28;20456;-73
2023/01/20 06:07:03;;;;;;;36.20;16.67;;;-0.80;99.90;;;;;;4940387;28;20042;-73
2023/01/20 06:09:29;;;;;;;29.67;16.30;;;-0.70;99.90;;;;;;4934413;29;20048;-73
2023/01/20 06:11:55;;;;;;;33.25;17.25;;;-0.70;99.90;;;;;;4945113;29;20048;-73
2023/01/20 06:14:20;;;;;;;32.67;16.25;;;-0.80;99.90;;;;;;4938356;28;20393;-74
2023/01/20 06:16:46;;;;;;;29.42;15.13;;;-0.80;99.90;;;;;;4932311;29;20460;-73
2023/01/20 06:19:12;;;;;;;33.53;16.50;;;-0.80;99.90;;;;;;4938293;29;20085;-74
2023/01/20 06:21:38;;;;;;;34.20;17.10;;;-0.80;99.90;;;;;;4934242;29;20073;-74
2023/01/20 06:24:05;;;;;;;36.03;16.27;;;-0.80;99.90;;;;;;4923896;29;20123;-74
2023/01/20 06:26:30;;;;;;;34.38;16.13;;;-0.90;99.90;;;;;;4936742;29;20039;-74
2023/01/20 06:29:02;;;;;;;32.40;15.48;;;-0.60;99.90;;;;;;4899409;29;20441;-73
2023/01/20 06:31:28;;;;;;;31.13;15.77;;;-0.90;99.90;;;;;;4917382;29;20551;-73
2023/01/20 06:33:55;;;;;;;36.28;16.42;;;-0.90;99.90;;;;;;4920395;29;20129;-73
2023/01/20 06:36:25;;;;;;;29.20;14.93;;;-1.00;99.90;;;;;;4936754;28;20114;-73
2023/01/20 06:38:54;;;;;;;;;;;-1.00;99.90;;;;;;4956334;28;20129;-73
2023/01/20 06:41:20;;;;;;;29.15;14.68;;;-0.90;99.90;;;;;;4971138;28;19960;-73
2023/01/20 06:43:49;;;;;;;31.27;15.88;;;-1.00;99.90;;;;;;4931978;29;20047;-73
2023/01/20 06:46:14;;;;;;;;;;;-1.00;99.90;;;;;;4951937;28;20083;-73
2023/01/20 06:48:41;;;;;;;34.92;15.63;;;-0.90;99.90;;;;;;4955868;28;20638;-73
2023/01/20 06:51:12;;;;;;;37.00;16.33;;;-1.00;99.90;;;;;;4923374;29;20043;-73
2023/01/20 06:53:40;;;;;;;31.05;15.20;;;-0.80;99.90;;;;;;4937052;29;20048;-73
2023/01/20 06:56:08;;;;;;;32.45;15.60;;;-0.90;99.90;;;;;;4923943;29;20043;-73
2023/01/20 06:58:34;;;;;;;28.23;13.13;;;-0.80;99.90;;;;;;4908110;28;20051;-73
2023/01/20 07:01:15;;;;;;;36.78;15.40;;;-0.90;99.90;;;;;;4926473;28;20134;-74
2023/01/20 07:03:46;;;;;;;33.15;15.52;;;-1.00;99.90;;;;;;4924568;29;20077;-74
2023/01/20 07:06:27;;;;;;;34.53;16.35;;;-1.00;99.90;;;;;;4939586;28;20043;-73
2023/01/20 07:08:53;;;;;;;34.42;15.93;;;-1.10;99.90;;;;;;4944256;29;20049;-73
2023/01/20 07:11:19;;;;;;;32.35;15.20;;;-0.90;99.90;;;;;;4928407;29;20457;-73
2023/01/20 07:13:45;;;;;;;31.65;16.15;;;-1.20;99.90;;;;;;4943018;29;20109;-73
2023/01/20 07:16:11;;;;;;;35.38;18.25;;;-1.20;99.90;;;;;;4922770;29;20054;-73
2023/01/20 07:18:37;;;;;;;30.98;15.88;;;-1.30;99.90;;;;;;4920816;29;20376;-74
2023/01/20 07:21:06;;;;;;;32.58;15.93;;;-1.20;99.90;;;;;;4939744;29;20452;-73
2023/01/20 07:23:32;;;;;;;32.13;15.77;;;-1.20;99.90;;;;;;4936400;29;20140;-73
2023/01/20 07:26:08;;;;;;;35.22;15.70;;;-1.30;99.90;;;;;;4924886;29;20047;-74
2023/01/20 07:28:37;;;;;;;31.58;15.40;;;-1.20;99.90;;;;;;4940371;29;20070;-74
2023/01/20 07:31:07;;;;;;;34.03;16.75;;;-1.40;99.90;;;;;;4936422;28;20043;-74
2023/01/20 07:33:33;;;;;;;35.58;16.85;;;-1.30;99.90;;;;;;4935803;28;20051;-73
2023/01/20 07:36:06;;;;;;;33.00;15.45;;;-1.20;99.90;;;;;;4939396;29;20442;-73
2023/01/20 07:38:32;;;;;;;32.45;15.95;;;-1.10;99.90;;;;;;4940027;29;20130;-73
2023/01/20 07:41:02;;;;;;;33.17;15.88;;;-1.00;99.90;;;;;;4954795;28;20055;-73
2023/01/20 07:43:28;;;;;;;38.97;15.90;;;-1.20;99.90;;;;;;4953579;28;20055;-74
2023/01/20 07:45:58;;;;;;;37.05;16.52;;;-1.10;99.90;;;;;;4924096;29;20062;-73
2023/01/20 07:48:24;;;;;;;30.88;15.73;;;-1.40;99.90;;;;;;4921968;28;20042;-74
2023/01/20 07:51:01;;;;;;;26.52;13.90;;;-1.50;99.90;;;;;;4954184;28;20102;-74
2023/01/20 07:53:28;;;;;;;31.30;15.83;;;-1.60;99.90;;;;;;4938481;29;20476;-74
2023/01/20 07:55:59;;;;;;;34.63;16.55;;;-1.40;99.90;;;;;;4938941;29;20354;-74
2023/01/20 07:58:25;;;;;;;28.65;15.23;;;-1.30;99.90;;;;;;4925466;29;20055;-73
2023/01/20 08:00:51;;;;;;;32.17;14.82;;;-1.10;99.90;;;;;;4929179;28;20047;-73
2023/01/20 08:03:17;;;;;;;32.03;15.57;;;-1.10;99.90;;;;;;4938958;29;20729;-73
2023/01/20 08:05:42;;;;;;;31.27;14.43;;;-1.10;99.90;;;;;;4930339;29;20047;-73
2023/01/20 08:08:08;;;;;;;31.45;15.50;;;-1.20;99.90;;;;;;4937211;29;20139;-73
2023/01/20 08:10:34;;;;;;;33.70;16.35;;;-1.50;99.90;;;;;;4938909;28;20722;-73
2023/01/20 08:13:00;;;;;;;33.60;17.15;;;-1.40;99.90;;;;;;4938601;28;20051;-73
2023/01/20 08:15:25;;;;;;;36.05;17.52;;;-1.10;99.90;;;;;;4937848;29;20244;-73
2023/01/20 08:17:54;;;;;;;35.88;15.98;;;-1.00;99.90;;;;;;4945829;28;20473;-73
2023/01/20 08:20:21;;;;;;;34.42;17.33;;;-1.00;99.90;;;;;;4935996;29;20048;-72
2023/01/20 08:22:46;;;;;;;30.73;16.83;;;-0.70;99.90;;;;;;4933107;29;20369;-70
2023/01/20 08:25:12;;;;;;;37.72;18.25;;;-0.80;99.90;;;;;;4928047;29;20043;-70
2023/01/20 08:27:38;;;;;;;31.45;16.48;;;-0.60;99.90;;;;;;4948561;29;20122;-70
2023/01/20 08:30:04;;;;;;;35.60;16.48;;;-0.50;99.90;;;;;;4922696;29;20063;-70
2023/01/20 08:32:30;;;;;;;29.58;15.40;;;-0.40;99.90;;;;;;4934954;29;20047;-70
2023/01/20 08:34:56;;;;;;;35.30;16.90;;;-0.40;99.90;;;;;;4940837;28;20551;-70
2023/01/20 08:37:22;;;;;;;34.25;17.70;;;-0.30;99.90;;;;;;4939747;29;20059;-70
2023/01/20 08:39:48;;;;;;;34.88;17.15;;;-0.30;99.90;;;;;;4951395;28;20141;-70
2023/01/20 08:42:13;;;;;;;37.42;17.15;;;-0.30;99.90;;;;;;4928444;29;20099;-70
2023/01/20 08:44:39;;;;;;;34.30;17.40;;;-0.30;99.90;;;;;;4927796;29;20520;-70
2023/01/20 08:47:05;;;;;;;34.60;16.35;;;-0.40;99.90;;;;;;4912648;29;20490;-71
2023/01/20 08:49:31;;;;;;;39.45;18.00;;;-0.20;99.90;;;;;;4943922;28;20047;-70
2023/01/20 08:51:57;;;;;;;34.90;16.65;;;-0.20;99.90;;;;;;4965083;28;20050;-70
2023/01/20 08:54:23;;;;;;;38.25;16.55;;;-0.10;99.90;;;;;;4953478;28;20043;-72
2023/01/20 08:56:50;;;;;;;36.30;16.25;;;0.00;99.90;;;;;;4942040;28;20400;-70
2023/01/20 08:59:16;;;;;;;33.80;16.63;;;-0.10;99.90;;;;;;4968940;28;20047;-70
2023/01/20 09:01:42;;;;;;;31.50;16.33;;;0.00;99.90;;;;;;4951715;28;20050;-70
2023/01/20 09:04:11;;;;;;;33.80;15.73;;;0.10;99.90;;;;;;4950124;28;20052;-70
2023/01/20 09:06:45;;;;;;;42.15;17.90;;;0.00;99.90;;;;;;4920088;29;20464;-70
2023/01/20 09:09:11;;;;;;;35.35;15.40;;;0.00;99.90;;;;;;4928368;29;20146;-70
2023/01/20 09:11:37;;;;;;;28.90;16.42;;;0.00;99.90;;;;;;4922997;29;20047;-70
2023/01/20 09:14:03;;;;;;;34.13;16.65;;;0.00;99.90;;;;;;4928898;29;20126;-70
2023/01/20 09:16:29;;;;;;;32.38;15.95;;;0.00;99.90;;;;;;4936219;29;20480;-70
2023/01/20 09:18:54;;;;;;;36.15;17.80;;;0.00;99.90;;;;;;4937863;29;20067;-72
2023/01/20 09:21:20;;;;;;;37.67;17.85;;;-0.10;99.90;;;;;;4953924;28;20050;-70
2023/01/20 09:23:47;;;;;;;29.85;15.80;;;-0.10;99.90;;;;;;4935524;29;20051;-70
2023/01/20 09:26:12;;;;;;;33.50;16.25;;;-0.20;99.90;;;;;;4957090;29;20365;-73
2023/01/20 09:28:41;;;;;;;45.45;18.67;;;0.00;99.90;;;;;;4942070;28;20039;-73
2023/01/20 09:31:07;;;;;;;37.85;17.63;;;0.00;99.90;;;;;;4941120;29;20070;-73
2023/01/20 09:33:35;;;;;;;32.17;16.88;;;0.00;99.90;;;;;;4941728;29;20047;-73
2023/01/20 09:36:01;;;;;;;35.72;18.75;;;0.20;99.90;;;;;;4925988;29;20099;-73
2023/01/20 09:44:42;;;;;;;34.65;17.38;;;0.70;99.90;;;;;;4940538;29;20048;-73
2023/01/20 09:47:18;;;;;;;33.90;16.33;;;0.80;99.90;;;;;;4957920;28;20078;-73
2023/01/20 09:55:51;;;;;;;33.40;16.95;;;0.60;99.90;;;;;;4937234;29;20044;-73
2023/01/20 09:58:31;;;;;;;34.38;16.63;;;0.90;99.90;;;;;;4955966;28;20043;-77
2023/01/20 10:01:08;;;;;;;29.00;16.08;;;1.20;99.90;;;;;;4940477;29;20098;-76
2023/01/20 10:03:47;;;;;;;28.05;15.77;;;1.60;99.90;;;;;;4941358;29;20078;-79
2023/01/20 10:06:17;;;;;;;30.42;15.98;;;1.90;99.90;;;;;;4941578;29;20039;-78
2023/01/20 10:08:59;;;;;;;31.15;16.80;;;2.00;99.90;;;;;;4925444;29;20042;-78
2023/01/20 10:11:26;;;;;;;36.38;17.60;;;1.90;99.90;;;;;;4937156;28;20046;-78
2023/01/20 10:13:55;;;;;;;35.92;18.65;;;2.00;99.90;;;;;;4924233;29;20047;-78
2023/01/20 10:16:26;;;;;;;30.52;16.67;;;2.10;99.90;;;;;;4924788;29;20039;-76
2023/01/20 10:18:59;;;;;;;29.50;16.52;;;2.30;99.90;;;;;;4925065;29;20079;-78
2023/01/20 10:21:34;;;;;;;32.40;16.63;;;2.20;99.90;;;;;;4940930;29;20043;-78
2023/01/20 10:24:09;;;;;;;29.13;15.82;;;2.40;99.90;;;;;;4925297;29;20051;-78
2023/01/20 10:26:56;;;;;;;35.22;15.90;;;2.70;99.90;;;;;;4945288;28;20378;-77
2023/01/20 10:29:43;;;;;;;36.33;17.15;;;3.00;99.90;;;;;;4932593;28;20058;-78
2023/01/20 10:32:26;;;;;;;26.27;15.50;;;3.40;99.90;;;;;;4924259;29;20055;-78
2023/01/20 10:34:53;;;;;;;31.38;16.27;;;3.60;99.90;;;;;;4922033;29;20051;-77
2023/01/20 10:37:19;;;;;;;28.77;15.65;;;3.80;99.90;;;;;;4919729;29;20122;-77
2023/01/20 10:40:03;;;;;;;28.13;15.48;;;4.00;99.90;;;;;;4917222;29;20198;-77
2023/01/20 10:42:29;;;;;;;28.23;14.18;;;4.20;99.90;;;;;;4933418;29;20047;-77
2023/01/20 10:44:54;;;;;;;28.17;15.55;;;4.10;99.90;;;;;;4955793;28;20054;-77
2023/01/20 10:47:35;;;;;;;27.52;14.43;;;4.40;99.90;;;;;;4942673;28;20039;-77
2023/01/20 10:51:02;;;;;;;24.30;13.63;;;4.50;99.90;;;;;;4947407;28;20058;-77
2023/01/20 10:53:52;;;;;;;25.33;14.18;;;4.40;99.90;;;;;;4900414;29;20073;-77
2023/01/20 10:56:34;;;;;;;24.30;12.60;;;4.50;99.90;;;;;;4939446;29;20190;-77
2023/01/20 10:59:28;;;;;;;22.50;12.85;;;4.80;99.90;;;;;;4930314;29;20056;-76
2023/01/20 11:01:53;;;;;;;24.58;13.15;;;5.10;99.90;;;;;;4930558;29;20138;-76
2023/01/20 11:04:19;;;;;;;19.08;12.35;;;5.60;99.90;;;;;;4919835;29;20425;-76
2023/01/20 11:06:52;;;;;;;22.33;12.68;;;5.90;99.90;;;;;;4913271;29;20121;-77
2023/01/20 11:09:33;;;;;;;23.08;12.63;;;7.50;99.90;;;;;;4936482;29;20067;-76
2023/01/20 11:12:00;;;;;;;20.13;11.93;;;9.30;96.90;;;;;;4927071;29;20054;-76
2023/01/20 11:14:26;;;;;;;19.52;10.15;;;9.40;75.50;;;;;;4914575;29;20071;-77
2023/01/20 11:16:56;;;;;;;16.83;10.65;;;11.00;74.60;;;;;;4909715;29;20047;-76
2023/01/20 11:19:21;;;;;;;18.73;10.65;;;10.40;67.90;;;;;;4916966;29;20138;-77
2023/01/20 11:21:47;;;;;;;20.17;11.52;;;9.70;72.10;;;;;;4930160;29;20142;-77
2023/01/20 11:24:40;;;;;;;21.10;11.15;;;9.90;73.40;;;;;;4934042;29;20047;-78
2023/01/20 11:27:12;;;;;;;21.17;11.85;;;10.60;66.90;;;;;;4915519;29;20045;-77
2023/01/20 11:29:59;;;;;;;17.02;10.57;;;11.30;65.60;;;;;;4920656;29;20059;-76
2023/01/20 11:32:35;;;;;;;18.98;10.93;;;9.80;70.50;;;;;;4944784;28;20400;-78
2023/01/20 11:35:22;;;;;;;17.85;9.90;;;7.40;88.40;;;;;;4935866;29;20468;-79
2023/01/20 11:37:47;;;;;;;17.98;10.80;;;8.50;90.80;;;;;;4934025;29;20166;-78
2023/01/20 11:40:18;;;;;;;20.15;11.57;;;9.50;81.60;;;;;;4938685;29;20159;-78
2023/01/20 11:42:45;;;;;;;19.23;11.63;;;8.90;78.20;;;;;;4936652;29;20468;-77
2023/01/20 11:45:25;;;;;;;19.52;11.60;;;8.20;88.00;;;;;;4920137;29;20044;-76
2023/01/20 11:48:01;;;;;;;17.35;11.35;;;7.50;91.20;;;;;;4917896;29;20054;-76
2023/01/20 11:50:38;;;;;;;19.95;11.55;;;6.50;96.80;;;;;;4964399;28;20404;-76
2023/01/20 11:53:21;;;;;;;20.80;12.20;;;6.10;99.90;;;;;;4938574;29;20058;-77
2023/01/20 11:55:57;;;;;;;20.83;11.63;;;6.10;99.90;;;;;;4933772;29;20158;-77
2023/01/20 11:58:27;;;;;;;19.30;11.50;;;6.50;98.80;;;;;;4945610;29;20393;-78
2023/01/20 12:01:06;;;;;;;19.48;11.20;;;7.00;96.20;;;;;;4939337;29;20098;-78
2023/01/20 12:03:50;;;;;;;21.65;11.95;;;8.10;90.40;;;;;;4953400;28;20057;-77
2023/01/20 12:06:25;;;;;;;19.35;11.70;;;8.70;91.00;;;;;;4948544;28;20036;-78
2023/01/20 12:09:22;;;;;;;18.02;10.70;;;9.90;77.40;;;;;;4950347;28;20044;-77
2023/01/20 12:11:59;;;;;;;19.48;10.80;;;11.50;71.00;;;;;;4941242;29;20077;-78
2023/01/20 12:14:41;;;;;;;17.70;10.35;;;11.50;61.50;;;;;;4929065;29;20163;-78
2023/01/20 12:17:18;;;;;;;19.40;10.45;;;12.20;58.50;;;;;;4936506;29;20039;-77
2023/01/20 12:20:00;;;;;;;16.25;9.75;;;11.10;58.20;;;;;;4954259;29;20046;-76
2023/01/20 12:22:53;;;;;;;14.82;9.77;;;10.80;60.60;;;;;;4956930;28;20085;-77
2023/01/20 12:25:27;;;;;;;16.30;9.35;;;10.10;61.80;;;;;;4928340;29;20086;-78
2023/01/20 12:27:56;;;;;;;15.32;8.80;;;9.10;69.60;;;;;;4925193;29;20486;-77
2023/01/20 12:30:50;;;;;;;18.38;8.68;;;8.30;75.40;;;;;;4926378;29;20371;-77
2023/01/20 12:33:24;;;;;;;14.98;9.32;;;7.00;84.90;;;;;;4930831;29;20058;-77
2023/01/20 12:36:11;;;;;;;18.58;9.90;;;8.60;83.60;;;;;;4906003;29;20154;-78
2023/01/20 12:39:11;;;;;;;17.52;10.13;;;9.20;72.80;;;;;;4953744;28;20054;-77
2023/01/20 12:41:57;;;;;;;16.25;9.82;;;9.80;69.40;;;;;;4934697;29;20046;-77
2023/01/20 12:44:48;;;;;;;18.83;11.10;;;10.20;67.80;;;;;;4952795;28;20043;-77
2023/01/20 12:47:39;;;;;;;16.20;9.00;;;9.70;71.00;;;;;;4953595;29;20071;-78
2023/01/20 12:50:16;;;;;;;21.75;11.27;;;8.80;71.60;;;;;;4951589;29;20361;-77
2023/01/20 12:53:00;;;;;;;16.10;9.25;;;7.20;83.40;;;;;;4955469;28;20451;-76
2023/01/20 12:55:32;;;;;;;18.42;10.63;;;7.30;81.00;;;;;;4957806;28;20051;-77
2023/01/20 12:58:18;;;;;;;17.23;10.32;;;7.00;87.30;;;;;;4939619;29;20119;-77
2023/01/20 13:00:55;;;;;;;17.65;10.57;;;6.30;91.70;;;;;;4939932;28;20083;-77
2023/01/20 13:03:40;;;;;;;18.52;10.95;;;6.10;95.20;;;;;;4953139;29;20118;-77
2023/01/20 13:06:30;;;;;;;15.52;10.70;;;5.90;95.60;;;;;;4918439;29;20044;-77